Terminal Aerodrome Forecast
Issued by NWS Cleveland, OH

Home | Current Version | Previous Version | Graphics & Text | Print | Product List | Glossary On
Versions: 1 2 3 4 5 6 7 8 9 10 11 12 13 14 15 16 17 18 19 20
000
FTUS41 KCLE 192300
TAFYNG
TAF
KYNG 192330Z 2000/2024 20005KT P6SM BKN250
     FM201400 18010G18KT P6SM BKN035 OVC080=

USA.gov is the U.S. government's official web portal to all federal, state and local government web resources and services.